Time;durP1;ratioP1;P1;durP2;ratioP2;P2;SDS_P1;SDS_P2;PMS_P1;PMS_P2;Temp;Humidity;BMP_temperature;BMP_pressure;BME280_temperature;BME280_humidity;BME280_pressure;Samples;Min_cycle;Max_cycle;Signal;HPM_P1;HPM_P2
2023/11/30 00:02:23;;;;;;;301.30;293.48;;;;;;;;;;5036474;28;20395;-88
2023/11/30 00:04:51;;;;;;;299.40;291.63;;;;;;;;;;5054813;28;20094;-88
2023/11/30 00:07:18;;;;;;;318.60;310.45;;;;;;;;;;5055670;28;20485;-89
2023/11/30 00:09:44;;;;;;;294.48;286.80;;;;;;;;;;5055368;28;20060;-89
2023/11/30 00:12:11;;;;;;;308.55;300.65;;;;;;;;;;5055187;28;20049;-88
2023/11/30 00:14:37;;;;;;;302.02;294.23;;;;;;;;;;5049625;28;20413;-89
2023/11/30 00:17:04;;;;;;;302.52;294.70;;;;;;;;;;5015607;28;20085;-87
2023/11/30 00:19:30;;;;;;;336.10;327.60;;;;;;;;;;5015389;28;20081;-88
2023/11/30 00:21:58;;;;;;;308.88;300.88;;;;;;;;;;5015325;28;20458;-87
2023/11/30 00:24:25;;;;;;;318.75;310.55;;;;;;;;;;5015149;28;20054;-87
2023/11/30 00:26:51;;;;;;;317.73;309.60;;;;;;;;;;5015282;28;20466;-88
2023/11/30 00:29:18;;;;;;;295.20;287.52;;;;;;;;;;5014742;28;20490;-87
2023/11/30 00:31:44;;;;;;;317.45;309.33;;;;;;;;;;5015028;28;20053;-87
2023/11/30 00:34:11;;;;;;;290.33;282.73;;;;;;;;;;5032939;28;20049;-87
2023/11/30 00:36:37;;;;;;;301.73;293.88;;;;;;;;;;5034457;28;20436;-88
2023/11/30 00:39:05;;;;;;;296.00;288.30;;;;;;;;;;5034159;28;20056;-87
2023/11/30 00:41:32;;;;;;;338.48;329.95;;;;;;;;;;5034564;28;20080;-87
2023/11/30 00:43:58;;;;;;;334.38;325.85;;;;;;;;;;5034407;28;20061;-87
2023/11/30 00:46:25;;;;;;;302.13;294.33;;;;;;;;;;5033825;28;20442;-87
2023/11/30 00:48:51;;;;;;;316.45;308.33;;;;;;;;;;5032995;28;20041;-87
2023/11/30 00:51:18;;;;;;;333.52;325.10;;;;;;;;;;5034030;28;20050;-86
2023/11/30 00:53:45;;;;;;;305.45;297.52;;;;;;;;;;5034017;28;20604;-87
2023/11/30 00:56:13;;;;;;;277.20;269.92;;;;;;;;;;5033695;28;20064;-87
2023/11/30 00:58:39;;;;;;;352.98;344.20;;;;;;;;;;5034237;28;20056;-88
2023/11/30 01:01:06;;;;;;;323.17;314.98;;;;;;;;;;5034308;28;20046;-88
2023/11/30 01:03:32;;;;;;;319.45;311.33;;;;;;;;;;5034497;28;20049;-88
2023/11/30 01:05:59;;;;;;;281.33;273.95;;;;;;;;;;5033234;28;20041;-88
2023/11/30 01:08:25;;;;;;;313.20;305.15;;;;;;;;;;5034559;28;20049;-88
2023/11/30 01:10:52;;;;;;;302.70;294.88;;;;;;;;;;5033703;28;20506;-88
2023/11/30 01:13:20;;;;;;;283.25;275.85;;;;;;;;;;5034279;28;20068;-89
2023/11/30 01:15:46;;;;;;;275.40;268.15;;;;;;;;;;5033867;28;20052;-88
2023/11/30 01:18:13;;;;;;;300.90;293.05;;;;;;;;;;5033340;28;20060;-87
2023/11/30 01:20:39;;;;;;;313.85;305.77;;;;;;;;;;5031926;28;20053;-88
2023/11/30 01:23:06;;;;;;;284.77;277.33;;;;;;;;;;5033484;28;20045;-88
2023/11/30 01:25:32;;;;;;;310.77;302.80;;;;;;;;;;5033395;28;20454;-88
2023/11/30 01:27:59;;;;;;;332.90;324.45;;;;;;;;;;5033030;28;20057;-88
2023/11/30 01:30:27;;;;;;;343.60;334.92;;;;;;;;;;5033360;28;20049;-88
2023/11/30 01:32:53;;;;;;;306.00;298.13;;;;;;;;;;5033292;28;20053;-88
2023/11/30 01:35:20;;;;;;;329.42;321.05;;;;;;;;;;5033263;28;20059;-89
2023/11/30 01:37:46;;;;;;;311.65;303.63;;;;;;;;;;5030398;28;20170;-88
2023/11/30 01:40:13;;;;;;;353.15;344.33;;;;;;;;;;5053510;28;20056;-89
2023/11/30 01:42:40;;;;;;;296.85;289.15;;;;;;;;;;5053370;28;20049;-88
2023/11/30 01:45:07;;;;;;;287.08;279.55;;;;;;;;;;5034724;28;20049;-87
2023/11/30 01:47:35;;;;;;;302.70;294.85;;;;;;;;;;5033471;28;20045;-88
2023/11/30 01:50:02;;;;;;;305.65;297.75;;;;;;;;;;5033625;28;20046;-88
2023/11/30 01:52:29;;;;;;;304.98;297.08;;;;;;;;;;5033528;28;20442;-89
2023/11/30 01:54:56;;;;;;;306.17;298.25;;;;;;;;;;5033280;28;20053;-89
2023/11/30 01:57:23;;;;;;;323.70;315.45;;;;;;;;;;5032821;28;20056;-88
2023/11/30 01:59:49;;;;;;;289.52;281.95;;;;;;;;;;5032364;28;20458;-88
2023/11/30 02:02:16;;;;;;;332.48;324.05;;;;;;;;;;5051008;28;20136;-88
2023/11/30 02:04:44;;;;;;;336.92;328.38;;;;;;;;;;5053053;28;20048;-88
2023/11/30 02:07:11;;;;;;;297.90;290.17;;;;;;;;;;5052876;28;20540;-88
2023/11/30 02:09:37;;;;;;;294.60;286.92;;;;;;;;;;5052530;28;20725;-88
2023/11/30 02:12:04;;;;;;;339.88;331.33;;;;;;;;;;5052577;28;20110;-88
2023/11/30 02:14:31;;;;;;;312.05;304.02;;;;;;;;;;5052727;28;20053;-88
2023/11/30 02:16:58;;;;;;;296.77;289.08;;;;;;;;;;5037303;28;20076;-90
2023/11/30 02:19:24;;;;;;;325.67;317.38;;;;;;;;;;5032994;28;20056;-88
2023/11/30 02:21:52;;;;;;;277.23;269.90;;;;;;;;;;5032446;28;20458;-88
2023/11/30 02:24:19;;;;;;;320.25;312.08;;;;;;;;;;5032457;28;20071;-88
2023/11/30 02:26:45;;;;;;;315.92;307.88;;;;;;;;;;5032835;28;20053;-88
2023/11/30 02:29:15;;;;;;;301.05;293.30;;;;;;;;;;5032601;28;20041;-88
2023/11/30 02:31:41;;;;;;;309.98;301.98;;;;;;;;;;5032682;28;20061;-88
2023/11/30 02:34:08;;;;;;;329.45;321.08;;;;;;;;;;5031930;28;20053;-88
2023/11/30 02:36:34;;;;;;;291.75;284.15;;;;;;;;;;5032980;28;20415;-88
2023/11/30 02:39:03;;;;;;;314.83;306.75;;;;;;;;;;5032440;28;20050;-88
2023/11/30 02:41:29;;;;;;;316.80;308.65;;;;;;;;;;5032528;28;20646;-89
2023/11/30 02:43:56;;;;;;;285.30;277.80;;;;;;;;;;5032291;28;20053;-88
2023/11/30 02:46:23;;;;;;;280.52;273.15;;;;;;;;;;5032471;28;20052;-89
2023/11/30 02:48:49;;;;;;;281.10;273.70;;;;;;;;;;5032705;28;20057;-88
2023/11/30 02:51:16;;;;;;;279.95;272.60;;;;;;;;;;5019182;28;20060;-88
2023/11/30 02:53:42;;;;;;;292.60;284.98;;;;;;;;;;5012904;28;20045;-88
2023/11/30 02:56:11;;;;;;;279.80;272.45;;;;;;;;;;5012727;28;20113;-89
2023/11/30 02:58:37;;;;;;;280.92;273.52;;;;;;;;;;5013047;28;20402;-88
2023/11/30 03:01:04;;;;;;;279.88;272.52;;;;;;;;;;5032204;28;20506;-88
2023/11/30 03:03:31;;;;;;;326.27;317.98;;;;;;;;;;5032216;28;20076;-88
2023/11/30 03:05:57;;;;;;;306.02;298.15;;;;;;;;;;5032587;28;20057;-88
2023/11/30 03:08:24;;;;;;;316.15;308.05;;;;;;;;;;5051570;28;20049;-88
2023/11/30 03:10:50;;;;;;;323.23;314.98;;;;;;;;;;5055997;28;20052;-88
2023/11/30 03:13:18;;;;;;;281.77;274.38;;;;;;;;;;5055922;28;20053;-88
2023/11/30 03:15:45;;;;;;;323.02;314.75;;;;;;;;;;5055606;28;20045;-87
2023/11/30 03:18:12;;;;;;;312.70;304.65;;;;;;;;;;5060164;28;20106;-89
2023/11/30 03:20:39;;;;;;;307.58;299.63;;;;;;;;;;5076156;28;20056;-89
2023/11/30 03:23:05;;;;;;;312.95;304.92;;;;;;;;;;5044160;28;20104;-89
2023/11/30 03:25:33;;;;;;;331.27;322.90;;;;;;;;;;5036524;28;20049;-88
2023/11/30 03:27:59;;;;;;;295.00;287.30;;;;;;;;;;5035897;28;20442;-88
2023/11/30 03:30:27;;;;;;;327.77;319.45;;;;;;;;;;5035903;28;20061;-89
2023/11/30 03:32:54;;;;;;;303.83;295.98;;;;;;;;;;5035734;28;20056;-88
2023/11/30 03:35:20;;;;;;;299.25;291.45;;;;;;;;;;5036197;28;20052;-88
2023/11/30 03:37:47;;;;;;;272.05;264.83;;;;;;;;;;5038284;28;20108;-89
2023/11/30 03:40:13;;;;;;;290.88;283.27;;;;;;;;;;5055166;28;20041;-88
2023/11/30 03:42:40;;;;;;;303.25;295.40;;;;;;;;;;5056025;28;20045;-88
2023/11/30 03:45:07;;;;;;;299.58;291.80;;;;;;;;;;5055956;28;20457;-89
2023/11/30 03:47:34;;;;;;;314.38;306.30;;;;;;;;;;5055903;28;20056;-89
2023/11/30 03:50:00;;;;;;;297.48;289.77;;;;;;;;;;5055988;28;20044;-89
2023/11/30 03:52:27;;;;;;;305.27;297.40;;;;;;;;;;5056061;28;20055;-90
2023/11/30 03:54:53;;;;;;;286.55;279.02;;;;;;;;;;5055665;28;20053;-88
2023/11/30 03:57:20;;;;;;;290.20;282.63;;;;;;;;;;5054787;28;20053;-88
2023/11/30 03:59:46;;;;;;;335.00;326.55;;;;;;;;;;5055269;28;20452;-88
2023/11/30 04:02:13;;;;;;;297.90;290.20;;;;;;;;;;5054954;28;20528;-88
2023/11/30 04:04:41;;;;;;;303.73;295.88;;;;;;;;;;5054966;28;20056;-88
2023/11/30 04:07:08;;;;;;;290.08;282.48;;;;;;;;;;5055166;28;20049;-88
2023/11/30 04:09:36;;;;;;;293.20;285.55;;;;;;;;;;5055034;28;20045;-89
2023/11/30 04:12:03;;;;;;;301.60;293.77;;;;;;;;;;5054921;28;20064;-89
2023/11/30 04:14:29;;;;;;;348.17;339.48;;;;;;;;;;5058771;28;20060;-88
2023/11/30 04:16:56;;;;;;;325.63;317.38;;;;;;;;;;5074955;28;20049;-88
2023/11/30 04:19:22;;;;;;;288.15;280.63;;;;;;;;;;5074406;28;20044;-88
2023/11/30 04:21:50;;;;;;;303.67;295.85;;;;;;;;;;5074992;28;20102;-88
2023/11/30 04:24:17;;;;;;;261.27;254.30;;;;;;;;;;5074529;28;20049;-88
2023/11/30 04:26:43;;;;;;;271.42;264.23;;;;;;;;;;5074622;28;20052;-88
2023/11/30 04:29:10;;;;;;;289.23;281.67;;;;;;;;;;5074545;28;20700;-88
2023/11/30 04:31:36;;;;;;;300.13;292.35;;;;;;;;;;5053964;28;20128;-88
2023/11/30 04:34:03;;;;;;;272.80;265.55;;;;;;;;;;5054411;28;20050;-89
2023/11/30 04:36:29;;;;;;;321.52;313.30;;;;;;;;;;5054924;28;20059;-89
2023/11/30 04:38:57;;;;;;;325.92;317.65;;;;;;;;;;5054850;28;20064;-87
2023/11/30 04:41:24;;;;;;;292.13;284.50;;;;;;;;;;5054666;28;20049;-88
2023/11/30 04:43:50;;;;;;;288.73;281.15;;;;;;;;;;5053795;28;20049;-88
2023/11/30 04:46:17;;;;;;;312.55;304.52;;;;;;;;;;5044310;28;20056;-88
2023/11/30 04:48:44;;;;;;;296.90;289.17;;;;;;;;;;5034379;28;20107;-87
2023/11/30 04:51:10;;;;;;;329.10;320.75;;;;;;;;;;5038697;28;20045;-88
2023/11/30 04:53:37;;;;;;;288.13;280.60;;;;;;;;;;5054269;28;20045;-88
2023/11/30 04:56:05;;;;;;;299.20;291.48;;;;;;;;;;5054450;28;20049;-88
2023/11/30 04:58:32;;;;;;;303.95;296.08;;;;;;;;;;5053884;28;20052;-88
2023/11/30 05:00:58;;;;;;;281.35;273.98;;;;;;;;;;5053636;28;20041;-87
2023/11/30 05:03:25;;;;;;;261.75;254.75;;;;;;;;;;5054404;28;20059;-90
2023/11/30 05:05:51;;;;;;;276.55;269.27;;;;;;;;;;5054608;28;20053;-89
2023/11/30 05:08:18;;;;;;;276.50;269.17;;;;;;;;;;5047770;28;20050;-89
2023/11/30 05:10:45;;;;;;;313.05;305.00;;;;;;;;;;5034287;28;20060;-89
2023/11/30 05:13:12;;;;;;;308.52;300.55;;;;;;;;;;5033942;28;20458;-89
2023/11/30 05:15:39;;;;;;;273.30;266.08;;;;;;;;;;5034351;28;20053;-89
2023/11/30 05:18:06;;;;;;;305.52;297.25;;;;;;;;;;5033752;28;20049;-89
2023/11/30 05:20:33;;;;;;;296.60;288.90;;;;;;;;;;5033783;28;20050;-89
2023/11/30 05:23:00;;;;;;;285.98;278.50;;;;;;;;;;5034329;28;20049;-88
2023/11/30 05:25:27;;;;;;;246.98;240.25;;;;;;;;;;5051607;28;20080;-88
2023/11/30 05:27:54;;;;;;;284.58;277.10;;;;;;;;;;5053535;28;20045;-89
2023/11/30 05:30:22;;;;;;;272.75;265.52;;;;;;;;;;5053537;28;20048;-89
2023/11/30 05:32:48;;;;;;;289.08;281.63;;;;;;;;;;5053519;28;20045;-89
2023/11/30 05:35:15;;;;;;;282.40;274.98;;;;;;;;;;5053715;28;20445;-88
2023/11/30 05:37:42;;;;;;;270.35;263.17;;;;;;;;;;5053594;28;20052;-88
2023/11/30 05:40:09;;;;;;;263.25;256.23;;;;;;;;;;5052055;28;20079;-88
2023/11/30 05:42:36;;;;;;;293.27;285.60;;;;;;;;;;5053320;28;20088;-89
2023/11/30 05:45:02;;;;;;;270.25;263.05;;;;;;;;;;5053545;28;20045;-89
2023/11/30 05:47:30;;;;;;;296.65;288.95;;;;;;;;;;5053239;28;20052;-89
2023/11/30 05:49:57;;;;;;;276.48;269.15;;;;;;;;;;5053254;28;20056;-89
2023/11/30 05:52:23;;;;;;;310.75;302.70;;;;;;;;;;5050559;28;20410;-89
2023/11/30 05:54:50;;;;;;;310.75;302.80;;;;;;;;;;5053049;28;20513;-88
2023/11/30 05:57:16;;;;;;;326.70;318.40;;;;;;;;;;5053230;28;20060;-88
2023/11/30 05:59:43;;;;;;;272.35;265.15;;;;;;;;;;5053101;28;20048;-88
2023/11/30 06:02:10;;;;;;;312.02;303.95;;;;;;;;;;5052867;28;20555;-89
2023/11/30 06:04:38;;;;;;;275.13;267.80;;;;;;;;;;5053517;28;20080;-91
2023/11/30 06:07:05;;;;;;;278.33;270.98;;;;;;;;;;5062676;28;20453;-91
2023/11/30 06:09:32;;;;;;;312.40;304.42;;;;;;;;;;5068600;28;20045;-90
2023/11/30 06:11:58;;;;;;;254.82;248.02;;;;;;;;;;5047784;28;20053;-88
2023/11/30 06:14:25;;;;;;;251.05;244.30;;;;;;;;;;5052774;28;20049;-88
2023/11/30 06:16:51;;;;;;;267.05;259.90;;;;;;;;;;5052812;28;20048;-89
2023/11/30 06:19:18;;;;;;;259.55;252.63;;;;;;;;;;5051227;28;20053;-88
2023/11/30 06:21:48;;;;;;;299.48;291.73;;;;;;;;;;5052752;28;20049;-96
2023/11/30 06:24:15;;;;;;;301.98;294.15;;;;;;;;;;5059645;28;20048;-91
2023/11/30 06:26:43;;;;;;;271.38;264.15;;;;;;;;;;5062883;28;20409;-90
2023/11/30 06:29:10;;;;;;;297.90;290.23;;;;;;;;;;5054643;28;20056;-92
2023/11/30 06:31:37;;;;;;;278.17;270.85;;;;;;;;;;5053429;28;20056;-92
2023/11/30 06:34:04;;;;;;;284.95;277.42;;;;;;;;;;5052576;28;20049;-90
2023/11/30 06:36:30;;;;;;;294.75;287.10;;;;;;;;;;5047868;28;20049;-90
2023/11/30 06:38:58;;;;;;;303.65;295.83;;;;;;;;;;5059339;28;20731;-90
2023/11/30 06:41:25;;;;;;;268.55;261.42;;;;;;;;;;5054837;28;20056;-90
2023/11/30 06:43:51;;;;;;;317.52;309.40;;;;;;;;;;5057130;28;20045;-89
2023/11/30 06:46:21;;;;;;;288.45;280.88;;;;;;;;;;5054596;28;20056;-90
2023/11/30 06:48:48;;;;;;;321.70;313.48;;;;;;;;;;5045573;28;20506;-89
2023/11/30 06:51:14;;;;;;;346.77;338.05;;;;;;;;;;5051171;28;20453;-89
2023/11/30 06:53:41;;;;;;;303.98;296.10;;;;;;;;;;5056990;28;20490;-89
2023/11/30 06:56:10;;;;;;;352.35;343.55;;;;;;;;;;5060647;28;20451;-92
2023/11/30 06:58:36;;;;;;;297.13;289.25;;;;;;;;;;5077642;28;20075;-92
2023/11/30 07:01:05;;;;;;;332.52;324.10;;;;;;;;;;5073842;28;20056;-92
2023/11/30 07:03:31;;;;;;;309.60;301.58;;;;;;;;;;5057781;28;20409;-92
2023/11/30 07:05:58;;;;;;;354.83;345.98;;;;;;;;;;5053115;28;20061;-92
2023/11/30 07:08:25;;;;;;;343.85;335.20;;;;;;;;;;5075215;28;20044;-92
2023/11/30 07:10:51;;;;;;;329.13;320.73;;;;;;;;;;5068778;28;20049;-92
2023/11/30 07:13:20;;;;;;;339.90;331.35;;;;;;;;;;5072893;28;20076;-92
2023/11/30 07:15:46;;;;;;;311.38;303.38;;;;;;;;;;5057500;28;20064;-91
2023/11/30 07:18:13;;;;;;;314.25;306.23;;;;;;;;;;5074985;28;20489;-91
2023/11/30 07:20:40;;;;;;;322.10;313.85;;;;;;;;;;5072374;28;20048;-90
2023/11/30 07:23:06;;;;;;;301.65;293.83;;;;;;;;;;5052670;28;20052;-90
2023/11/30 07:25:33;;;;;;;304.77;296.65;;;;;;;;;;5056199;28;20057;-91
2023/11/30 07:28:00;;;;;;;286.02;278.52;;;;;;;;;;5066189;28;20053;-92
2023/11/30 07:30:28;;;;;;;306.10;298.17;;;;;;;;;;5057324;28;20048;-93
2023/11/30 07:32:54;;;;;;;318.20;309.92;;;;;;;;;;5058296;28;20045;-92
2023/11/30 07:35:21;;;;;;;349.48;340.70;;;;;;;;;;5068498;28;20048;-92
2023/11/30 07:37:48;;;;;;;352.48;343.63;;;;;;;;;;5059342;28;20061;-92
2023/11/30 07:40:14;;;;;;;314.27;306.20;;;;;;;;;;5063722;28;20450;-92
2023/11/30 07:42:42;;;;;;;336.05;327.50;;;;;;;;;;5054298;28;20482;-92
2023/11/30 07:45:10;;;;;;;360.83;351.80;;;;;;;;;;5062625;28;20103;-93
2023/11/30 07:47:38;;;;;;;356.90;347.98;;;;;;;;;;5055533;28;20053;-92
2023/11/30 07:50:05;;;;;;;332.00;323.55;;;;;;;;;;5055087;28;20107;-92
2023/11/30 07:52:35;;;;;;;356.50;347.63;;;;;;;;;;5048053;28;20056;-92
2023/11/30 07:55:01;;;;;;;365.83;356.70;;;;;;;;;;5055266;28;20100;-92
2023/11/30 07:57:28;;;;;;;380.65;371.27;;;;;;;;;;5056280;28;20056;-92
2023/11/30 07:59:54;;;;;;;347.70;338.95;;;;;;;;;;5056140;28;20087;-92
2023/11/30 08:02:21;;;;;;;390.88;381.33;;;;;;;;;;5049939;28;20708;-91
2023/11/30 08:04:49;;;;;;;397.38;387.65;;;;;;;;;;5056550;28;20513;-92
2023/11/30 08:07:14;;;;;;;378.98;369.55;;;;;;;;;;5072038;28;20045;-92
2023/11/30 08:09:41;;;;;;;348.50;339.73;;;;;;;;;;5055497;28;20056;-92
2023/11/30 08:12:07;;;;;;;368.85;359.67;;;;;;;;;;5055444;28;20465;-92
2023/11/30 08:14:34;;;;;;;390.63;381.02;;;;;;;;;;5056026;28;20045;-92
2023/11/30 08:17:04;;;;;;;385.33;375.85;;;;;;;;;;5055972;28;20527;-92
2023/11/30 08:19:32;;;;;;;334.55;326.05;;;;;;;;;;5075844;28;20059;-92
2023/11/30 08:22:00;;;;;;;381.13;371.67;;;;;;;;;;5075660;28;20469;-92
2023/11/30 08:24:27;;;;;;;372.02;362.75;;;;;;;;;;5072608;28;20534;-93
2023/11/30 08:26:53;;;;;;;382.40;373.00;;;;;;;;;;5055089;28;20489;-93
2023/11/30 08:29:20;;;;;;;397.40;387.70;;;;;;;;;;5055812;28;20416;-94
2023/11/30 08:31:47;;;;;;;378.95;369.60;;;;;;;;;;5056166;28;20489;-93
2023/11/30 08:34:13;;;;;;;357.83;348.55;;;;;;;;;;5056145;28;20045;-94
2023/11/30 08:36:40;;;;;;;375.42;366.13;;;;;;;;;;5055842;28;20045;-93
2023/11/30 08:39:09;;;;;;;361.33;352.27;;;;;;;;;;5054884;28;20674;-92
2023/11/30 08:41:36;;;;;;;391.23;381.65;;;;;;;;;;5060150;28;20045;-92
2023/11/30 08:44:03;;;;;;;336.92;328.40;;;;;;;;;;5055056;28;20041;-92
2023/11/30 08:46:31;;;;;;;362.75;353.67;;;;;;;;;;5069748;28;20642;-92
2023/11/30 08:48:57;;;;;;;381.90;372.45;;;;;;;;;;5075165;28;20463;-92
2023/11/30 08:51:25;;;;;;;353.15;344.27;;;;;;;;;;5072243;28;20076;-93
2023/11/30 08:53:51;;;;;;;396.08;386.35;;;;;;;;;;5057267;28;20080;-92
2023/11/30 08:56:19;;;;;;;405.77;395.90;;;;;;;;;;5055972;28;20056;-91
2023/11/30 08:58:46;;;;;;;431.63;421.27;;;;;;;;;;5055611;28;20072;-92
2023/11/30 09:01:12;;;;;;;406.77;396.88;;;;;;;;;;5063174;28;20040;-92
2023/11/30 09:03:39;;;;;;;416.90;406.80;;;;;;;;;;5073109;28;20052;-92
2023/11/30 09:06:06;;;;;;;407.60;397.70;;;;;;;;;;5064197;28;20418;-92
2023/11/30 09:08:33;;;;;;;382.17;372.75;;;;;;;;;;5055072;28;20052;-92
2023/11/30 09:11:00;;;;;;;398.15;388.45;;;;;;;;;;5058815;28;20072;-91
2023/11/30 09:13:28;;;;;;;417.10;407.00;;;;;;;;;;5055429;28;20079;-92
2023/11/30 09:15:54;;;;;;;417.17;407.08;;;;;;;;;;5055052;28;20175;-92
2023/11/30 09:18:22;;;;;;;425.08;414.88;;;;;;;;;;5056678;28;20053;-92
2023/11/30 09:20:48;;;;;;;418.63;408.50;;;;;;;;;;5061008;28;20094;-92
2023/11/30 09:23:15;;;;;;;413.27;403.25;;;;;;;;;;5073225;28;20045;-92
2023/11/30 09:25:41;;;;;;;424.08;413.75;;;;;;;;;;5076313;28;20045;-92
2023/11/30 09:28:08;;;;;;;412.42;402.35;;;;;;;;;;5074908;28;20052;-92
2023/11/30 09:30:36;;;;;;;411.70;401.70;;;;;;;;;;5067793;28;20053;-93
2023/11/30 09:33:04;;;;;;;419.08;408.92;;;;;;;;;;5054800;28;20056;-91
2023/11/30 09:35:30;;;;;;;395.10;385.33;;;;;;;;;;5054446;28;20060;-92
2023/11/30 09:37:57;;;;;;;397.60;387.83;;;;;;;;;;5071037;28;20968;-91
2023/11/30 09:40:25;;;;;;;432.35;421.95;;;;;;;;;;5071147;28;20047;-91
2023/11/30 09:42:51;;;;;;;415.27;405.17;;;;;;;;;;5065729;28;20052;-92
2023/11/30 09:45:19;;;;;;;396.95;387.23;;;;;;;;;;5057746;28;20051;-91
2023/11/30 09:47:47;;;;;;;439.08;428.58;;;;;;;;;;5042078;28;20044;-91
2023/11/30 09:50:14;;;;;;;431.48;421.10;;;;;;;;;;5058255;28;20452;-91
2023/11/30 09:52:41;;;;;;;458.58;447.73;;;;;;;;;;5074277;28;20044;-92
2023/11/30 09:55:10;;;;;;;441.98;431.38;;;;;;;;;;5058401;28;20044;-91
2023/11/30 09:57:36;;;;;;;455.02;444.23;;;;;;;;;;5074120;28;20106;-91
2023/11/30 10:00:05;;;;;;;473.95;462.80;;;;;;;;;;5074088;28;20131;-91
2023/11/30 10:02:32;;;;;;;452.38;441.58;;;;;;;;;;5062965;28;20095;-91
2023/11/30 10:04:59;;;;;;;470.98;459.77;;;;;;;;;;5053864;28;20049;-91
2023/11/30 10:07:29;;;;;;;481.67;470.27;;;;;;;;;;5053897;28;20052;-90
2023/11/30 10:09:56;;;;;;;468.48;457.38;;;;;;;;;;5053312;28;20103;-91
2023/11/30 10:12:24;;;;;;;484.73;473.23;;;;;;;;;;5054685;28;20132;-90
2023/11/30 10:14:59;;;;;;;484.58;473.10;;;;;;;;;;5053433;28;20508;-90
2023/11/30 10:17:27;;;;;;;493.48;481.92;;;;;;;;;;5053465;28;20501;-90
2023/11/30 10:19:54;;;;;;;448.65;437.85;;;;;;;;;;5048124;28;20498;-89
2023/11/30 10:22:23;;;;;;;461.00;449.95;;;;;;;;;;5034160;28;20045;-90
2023/11/30 10:24:50;;;;;;;461.65;450.67;;;;;;;;;;5034373;28;20069;-90
2023/11/30 10:27:17;;;;;;;457.20;446.25;;;;;;;;;;5034693;28;20049;-90
2023/11/30 10:29:45;;;;;;;475.95;464.60;;;;;;;;;;5043433;28;20098;-90
2023/11/30 10:32:14;;;;;;;460.05;449.05;;;;;;;;;;5053877;28;20060;-91
2023/11/30 10:34:43;;;;;;;477.15;465.80;;;;;;;;;;5050146;28;20506;-89
2023/11/30 10:37:10;;;;;;;431.60;421.15;;;;;;;;;;5053527;28;20414;-90
2023/11/30 10:39:42;;;;;;;417.33;407.15;;;;;;;;;;5053395;28;20045;-89
2023/11/30 10:42:09;;;;;;;435.00;424.52;;;;;;;;;;5053731;28;20049;-90
2023/11/30 10:44:36;;;;;;;442.70;432.05;;;;;;;;;;5054179;28;20305;-90
2023/11/30 10:47:03;;;;;;;430.70;420.30;;;;;;;;;;5054796;28;20065;-90
2023/11/30 10:49:30;;;;;;;432.70;422.27;;;;;;;;;;5055000;28;20045;-91
2023/11/30 10:51:58;;;;;;;422.77;412.52;;;;;;;;;;5054812;28;20037;-90
2023/11/30 10:54:30;;;;;;;422.90;412.63;;;;;;;;;;5061562;28;20107;-90
2023/11/30 10:56:59;;;;;;;457.95;446.77;;;;;;;;;;5069087;28;20048;-91
2023/11/30 10:59:28;;;;;;;434.48;424.02;;;;;;;;;;5069057;28;20051;-89
2023/11/30 11:01:56;;;;;;;415.05;404.92;;;;;;;;;;5078052;28;20040;-89
2023/11/30 11:04:24;;;;;;;455.25;444.35;;;;;;;;;;5075852;28;20473;-89
2023/11/30 11:06:50;;;;;;;470.73;459.55;;;;;;;;;;5077733;28;20056;-88
2023/11/30 11:09:17;;;;;;;471.15;459.98;;;;;;;;;;5069412;28;20052;-89
2023/11/30 11:11:44;;;;;;;431.98;421.55;;;;;;;;;;5054295;28;20557;-89
2023/11/30 17:32:08;;;;;;;417.05;406.92;;;;;;;;;;6177474;22;1302617;-70
2023/11/30 17:34:35;;;;;;;415.90;405.70;;;;;;;;;;6212537;23;20032;-70
2023/11/30 17:37:02;;;;;;;406.75;396.80;;;;;;;;;;6211695;23;20020;-69
2023/11/30 17:39:29;;;;;;;390.63;380.92;;;;;;;;;;6213904;23;20033;-70
2023/11/30 17:41:56;;;;;;;413.90;403.73;;;;;;;;;;6214426;23;20020;-69
2023/11/30 17:44:23;;;;;;;401.20;391.35;;;;;;;;;;6214425;23;20025;-70
2023/11/30 17:46:49;;;;;;;410.23;400.20;;;;;;;;;;6211966;23;20020;-69
2023/11/30 17:49:22;;;;;;;412.00;401.90;;;;;;;;;;6213979;23;20096;-70
2023/11/30 17:51:48;;;;;;;401.10;391.20;;;;;;;;;;6212524;23;20066;-69
2023/11/30 17:54:15;;;;;;;409.50;399.42;;;;;;;;;;6213346;23;20028;-69
2023/11/30 17:56:41;;;;;;;411.38;401.30;;;;;;;;;;6214127;23;20021;-70
2023/11/30 17:59:08;;;;;;;392.55;382.85;;;;;;;;;;6214075;23;20514;-69
2023/11/30 18:01:34;;;;;;;415.63;405.48;;;;;;;;;;6214383;23;20024;-69
2023/11/30 18:04:01;;;;;;;414.75;404.55;;;;;;;;;;6213699;23;20071;-70
2023/11/30 18:06:29;;;;;;;403.02;393.05;;;;;;;;;;6213329;23;20025;-70
2023/11/30 18:08:55;;;;;;;388.17;378.58;;;;;;;;;;6211411;23;20099;-69
2023/11/30 18:11:22;;;;;;;400.48;390.60;;;;;;;;;;6213517;23;20452;-69
2023/11/30 18:13:49;;;;;;;408.80;398.80;;;;;;;;;;6214065;23;20020;-68
2023/11/30 18:16:15;;;;;;;406.45;395.90;;;;;;;;;;6213679;23;20116;-69
2023/11/30 18:18:42;;;;;;;400.00;390.13;;;;;;;;;;6213587;23;20025;-69
2023/11/30 18:21:10;;;;;;;427.95;417.65;;;;;;;;;;6214183;23;20028;-69
2023/11/30 18:23:38;;;;;;;415.33;405.20;;;;;;;;;;6214187;23;20035;-69
2023/11/30 18:26:04;;;;;;;402.63;392.70;;;;;;;;;;6213971;23;20095;-70
2023/11/30 18:28:31;;;;;;;396.10;386.38;;;;;;;;;;6213994;23;20099;-70
2023/11/30 18:30:58;;;;;;;376.98;367.58;;;;;;;;;;6213940;23;20083;-70
2023/11/30 18:33:25;;;;;;;420.65;410.38;;;;;;;;;;6213270;23;20490;-70
2023/11/30 18:35:52;;;;;;;380.45;370.95;;;;;;;;;;6213855;23;20024;-70
2023/11/30 18:38:18;;;;;;;408.02;398.05;;;;;;;;;;6213112;23;20032;-70
2023/11/30 18:40:46;;;;;;;404.65;394.70;;;;;;;;;;6212380;23;20479;-70
2023/11/30 18:43:15;;;;;;;426.30;416.00;;;;;;;;;;6211782;23;20120;-70
2023/11/30 18:45:42;;;;;;;410.85;400.83;;;;;;;;;;6212349;23;20020;-70
2023/11/30 18:48:09;;;;;;;399.30;389.48;;;;;;;;;;6213280;23;20032;-70
2023/11/30 18:50:36;;;;;;;411.15;401.08;;;;;;;;;;6213803;23;20051;-70
2023/11/30 18:53:03;;;;;;;404.75;394.83;;;;;;;;;;6213854;23;20092;-70
2023/11/30 18:55:30;;;;;;;417.98;407.83;;;;;;;;;;6213159;23;20021;-70
2023/11/30 18:57:58;;;;;;;420.25;410.05;;;;;;;;;;6213815;23;20024;-70
2023/11/30 19:00:24;;;;;;;408.80;398.85;;;;;;;;;;6213984;23;20099;-70
2023/11/30 19:02:52;;;;;;;382.15;372.65;;;;;;;;;;6213224;23;20024;-70
2023/11/30 19:05:18;;;;;;;416.67;406.55;;;;;;;;;;6213496;23;20103;-71
2023/11/30 19:07:45;;;;;;;396.73;386.92;;;;;;;;;;6212198;23;20514;-70
2023/11/30 19:10:13;;;;;;;389.25;379.58;;;;;;;;;;6213409;23;20082;-70
2023/11/30 19:12:40;;;;;;;369.02;359.77;;;;;;;;;;6213286;23;20021;-70
2023/11/30 19:15:08;;;;;;;377.88;368.40;;;;;;;;;;6213369;23;20021;-70
2023/11/30 19:17:35;;;;;;;384.33;374.77;;;;;;;;;;6212025;23;20079;-70
2023/11/30 19:20:01;;;;;;;379.05;369.60;;;;;;;;;;6213770;23;20025;-70
2023/11/30 19:22:28;;;;;;;383.30;373.75;;;;;;;;;;6212622;23;20029;-70
2023/11/30 19:24:54;;;;;;;367.13;357.92;;;;;;;;;;6212639;23;20029;-70
2023/11/30 19:27:22;;;;;;;403.30;393.40;;;;;;;;;;6213242;23;20123;-70
2023/11/30 19:29:48;;;;;;;391.38;381.70;;;;;;;;;;6212952;23;20044;-70
2023/11/30 19:32:16;;;;;;;392.08;382.40;;;;;;;;;;6212648;23;20079;-70
2023/11/30 19:34:42;;;;;;;382.35;372.88;;;;;;;;;;6213663;23;20325;-69
2023/11/30 19:37:09;;;;;;;367.88;358.63;;;;;;;;;;6213715;23;20083;-70
2023/11/30 19:39:36;;;;;;;368.58;359.38;;;;;;;;;;6213690;23;20040;-70
2023/11/30 19:42:02;;;;;;;376.55;367.17;;;;;;;;;;6215542;23;20024;-70
2023/11/30 19:44:29;;;;;;;365.88;356.70;;;;;;;;;;6215287;23;20541;-70
2023/11/30 19:46:56;;;;;;;370.58;361.35;;;;;;;;;;6214980;23;20023;-70
2023/11/30 19:49:24;;;;;;;377.08;367.70;;;;;;;;;;6215149;23;20024;-70
2023/11/30 19:51:50;;;;;;;388.90;379.23;;;;;;;;;;6215338;23;20024;-70
2023/11/30 19:54:18;;;;;;;385.83;376.25;;;;;;;;;;6215610;23;20410;-70
2023/11/30 19:56:44;;;;;;;383.67;374.10;;;;;;;;;;6215561;23;20394;-70
2023/11/30 19:59:11;;;;;;;403.25;393.35;;;;;;;;;;6215701;23;20078;-70
2023/11/30 20:01:37;;;;;;;422.35;412.10;;;;;;;;;;6215508;23;20048;-70
2023/11/30 20:04:04;;;;;;;413.55;403.42;;;;;;;;;;6213529;23;20325;-71
2023/11/30 20:06:32;;;;;;;405.15;395.20;;;;;;;;;;6214950;23;20023;-70
2023/11/30 20:08:58;;;;;;;406.63;396.65;;;;;;;;;;6214087;23;20025;-70